Terminal Aerodrome Forecast
Issued by NWS Wilmington, OH

Current Version | Previous Version | Text Only | Print | Product List | Glossary On
Versions: 1 2 3 4 5 6 7 8 9 10 11 12 13 14 15 16 17
000
FTUS41 KILN 201100
TAFILN
TAF
KILN 201135Z 2012/2112 19006KT P6SM SCT045 BKN060
     FM201500 21014G22KT P6SM BKN050
     FM202300 22012KT P6SM SCT050
     FM210700 22012KT P6SM VCSH BKN040
     FM211000 23010KT P6SM VCSH BKN025=

USA.gov is the U.S. government's official web portal to all federal, state and local government web resources and services.